Grand Forks Airport


Codes: CZGF/ZGF
Name: Grand Forks Airport
City: Grand Forks
Country: Canada
Elevation: 1720 ft.
Wikipedia:

Photos at Grand Forks Airport


   Photos courtesy of SpottingLog. You can add your own sightings and photos by signing up for a free trial today.



No photos found.

Weather at Grand Forks Airport


Time (UTC)DescriptionTempratureWindCloud coverageVisibilityPressureHumidity
18-Apr-2024 00:00Overcast Clouds11°C7 mph, N100%10000m1026hPa27%
18-Apr-2024 03:00Broken Clouds7°C2 mph, NW59%10000m1027hPa44%
18-Apr-2024 06:00Few Clouds2°C2 mph, W22%10000m1030hPa65%
18-Apr-2024 09:00Clear Sky0°C2 mph, W0%10000m1031hPa68%
18-Apr-2024 12:00Clear Sky-0°C2 mph, NW1%10000m1031hPa68%
18-Apr-2024 15:00Clear Sky5°C2 mph, NW0%10000m1029hPa46%
18-Apr-2024 18:00Clear Sky12°C2 mph, W5%10000m1025hPa28%
18-Apr-2024 21:00Overcast Clouds13°C2 mph, NW94%10000m1023hPa23%
19-Apr-2024 00:00Overcast Clouds12°C2 mph, N97%10000m1022hPa28%
19-Apr-2024 03:00Broken Clouds5°C4 mph, NE71%10000m1025hPa59%
19-Apr-2024 06:00Broken Clouds3°C2 mph, E80%10000m1027hPa76%
19-Apr-2024 09:00Overcast Clouds2°C2 mph, NE98%10000m1029hPa82%
19-Apr-2024 12:00Overcast Clouds2°C2 mph, N100%10000m1029hPa84%
19-Apr-2024 15:00Broken Clouds7°C2 mph, N70%10000m1028hPa62%
19-Apr-2024 18:00Light Rain12°C2 mph, E42%10000m1025hPa40%
19-Apr-2024 21:00Overcast Clouds14°C4 mph, E98%10000m1023hPa29%
20-Apr-2024 00:00Overcast Clouds14°C4 mph, E98%10000m1021hPa29%
20-Apr-2024 03:00Overcast Clouds7°C4 mph, E87%10000m1023hPa49%
20-Apr-2024 06:00Overcast Clouds5°C2 mph, SE90%10000m1025hPa56%
20-Apr-2024 09:00Clear Sky2°C2 mph, E4%10000m1025hPa66%
20-Apr-2024 12:00Clear Sky1°C2 mph, NE2%10000m1026hPa69%
20-Apr-2024 15:00Clear Sky7°C2 mph, E5%10000m1024hPa49%
20-Apr-2024 18:00Few Clouds13°C4 mph, SE22%10000m1020hPa28%
20-Apr-2024 21:00Clear Sky16°C7 mph, E2%10000m1017hPa25%
21-Apr-2024 00:00Scattered Clouds16°C7 mph, SE32%10000m1014hPa27%
21-Apr-2024 03:00Broken Clouds8°C4 mph, SE64%10000m1015hPa54%
21-Apr-2024 06:00Broken Clouds8°C2 mph, SE83%10000m1015hPa56%
21-Apr-2024 09:00Light Rain5°C4 mph, NW100%1073m1017hPa98%
21-Apr-2024 12:00Light Rain5°C2 mph, W100%10000m1019hPa95%
21-Apr-2024 15:00Overcast Clouds7°C2 mph, W98%10000m1019hPa84%
21-Apr-2024 18:00Light Rain11°C2 mph, NW90%10000m1018hPa63%
21-Apr-2024 21:00Light Rain14°C9 mph, NW87%10000m1016hPa36%
22-Apr-2024 00:00Overcast Clouds14°C9 mph, NW88%10000m1014hPa37%
22-Apr-2024 03:00Few Clouds8°C2 mph, N12%10000m1016hPa63%
22-Apr-2024 06:00Clear Sky5°C2 mph, NW7%10000m1018hPa78%
22-Apr-2024 09:00Clear Sky3°C2 mph, W2%10000m1019hPa84%
22-Apr-2024 12:00Clear Sky2°C0 mph, NW1%10000m1019hPa90%
22-Apr-2024 15:00Clear Sky7°C0 mph, NE0%10000m1018hPa64%
22-Apr-2024 18:00Clear Sky15°C2 mph, SE1%10000m1014hPa40%
22-Apr-2024 21:00Few Clouds18°C0 mph, E19%10000m1011hPa29%